Time;durP1;ratioP1;P1;durP2;ratioP2;P2;SDS_P1;SDS_P2;PMS_P1;PMS_P2;Temp;Humidity;BMP_temperature;BMP_pressure;BME280_temperature;BME280_humidity;BME280_pressure;Samples;Min_cycle;Max_cycle;Signal;HPM_P1;HPM_P2
2023/10/07 00:00:26;;;;;;;9.10;4.72;;;;;;;13.02;100.00;102015.50;5022223;28;20507;-75
2023/10/07 00:02:53;;;;;;;8.23;4.47;;;;;;;13.02;100.00;102007.50;5016947;28;20095;-76
2023/10/07 00:05:26;;;;;;;9.18;5.05;;;;;;;13.00;100.00;102005.81;5009662;28;20029;-76
2023/10/07 00:07:53;;;;;;;7.22;4.60;;;;;;;13.03;100.00;102016.38;5019138;28;20097;-75
2023/10/07 00:10:25;;;;;;;8.85;4.90;;;;;;;13.01;100.00;102023.59;5017172;28;20080;-76
2023/10/07 00:12:52;;;;;;;8.50;4.97;;;;;;;12.98;100.00;102018.38;5018988;28;20025;-75
2023/10/07 00:15:21;;;;;;;8.70;5.18;;;;;;;13.00;100.00;102017.41;5011163;28;20025;-77
2023/10/07 00:17:50;;;;;;;8.80;4.55;;;;;;;13.00;100.00;102012.06;5021465;28;20294;-75
2023/10/07 00:20:20;;;;;;;10.45;5.60;;;;;;;13.01;100.00;102003.09;5015462;28;20464;-77
2023/10/07 00:22:49;;;;;;;7.72;4.82;;;;;;;12.97;100.00;101990.78;5035982;28;20028;-75
2023/10/07 00:25:19;;;;;;;11.10;5.35;;;;;;;12.92;100.00;101982.97;5021589;28;20522;-75
2023/10/07 00:27:48;;;;;;;9.57;5.18;;;;;;;12.93;100.00;101984.72;5023352;28;20029;-77
2023/10/07 00:30:15;;;;;;;8.90;5.07;;;;;;;12.90;100.00;101997.31;5016393;28;20274;-76
2023/10/07 00:32:45;;;;;;;9.02;5.43;;;;;;;12.89;100.00;101990.25;5009545;28;20029;-75
2023/10/07 00:35:11;;;;;;;11.77;5.43;;;;;;;12.89;100.00;101992.91;5026459;28;20101;-76
2023/10/07 00:37:46;;;;;;;9.40;5.55;;;;;;;12.88;100.00;101994.72;5019358;28;20162;-76
2023/10/07 00:40:24;;;;;;;9.25;5.57;;;;;;;12.86;100.00;101987.69;5011639;28;20399;-76
2023/10/07 00:42:52;;;;;;;8.45;5.18;;;;;;;12.87;100.00;101998.31;5007075;28;20022;-75
2023/10/07 00:45:20;;;;;;;8.25;5.72;;;;;;;12.85;100.00;101992.19;5004213;28;20079;-76
2023/10/07 00:48:00;;;;;;;8.95;5.43;;;;;;;12.83;100.00;101985.16;5016710;28;20048;-76
2023/10/07 00:50:27;;;;;;;8.40;5.22;;;;;;;12.84;100.00;101995.78;5019367;28;20383;-76
2023/10/07 00:55:29;;;;;;;11.13;5.55;;;;;;;12.87;100.00;101984.94;5015303;28;20041;-76
2023/10/07 00:58:17;;;;;;;10.55;5.60;;;;;;;12.84;100.00;101985.09;5017818;28;20029;-76
2023/10/07 01:00:47;;;;;;;9.48;6.00;;;;;;;12.82;100.00;101984.28;5024318;28;20068;-76
2023/10/07 01:08:28;;;;;;;12.38;6.65;;;;;;;12.84;100.00;101970.88;5007786;28;20315;-74
2023/10/07 01:11:06;;;;;;;9.32;5.93;;;;;;;12.75;100.00;101969.47;5022325;28;20026;-75
2023/10/07 01:13:34;;;;;;;12.02;6.88;;;;;;;12.78;100.00;101968.44;5013851;28;20045;-76
2023/10/07 01:15:59;;;;;;;11.05;6.85;;;;;;;12.78;100.00;101969.31;5021008;28;20323;-74
2023/10/07 01:18:27;;;;;;;11.07;6.28;;;;;;;12.78;100.00;101949.75;5011255;28;20322;-74
2023/10/07 01:23:32;;;;;;;10.20;6.95;;;;;;;12.73;100.00;101962.44;5021585;28;20480;-75
2023/10/07 01:25:59;;;;;;;11.15;7.25;;;;;;;12.78;100.00;101976.47;5022804;28;20056;-75
2023/10/07 01:28:26;;;;;;;13.18;8.10;;;;;;;12.79;100.00;101979.09;5021306;28;20031;-76
2023/10/07 01:31:08;;;;;;;12.80;7.88;;;;;;;12.83;100.00;101982.47;5021455;28;20061;-75
2023/10/07 01:33:45;;;;;;;11.85;7.57;;;;;;;12.81;100.00;101987.03;5026127;28;20174;-76
2023/10/07 01:36:16;;;;;;;17.35;8.23;;;;;;;12.87;100.00;101987.63;5022385;28;20030;-76
2023/10/07 01:38:44;;;;;;;12.50;8.10;;;;;;;12.87;100.00;101968.91;5023420;28;20017;-75
2023/10/07 01:41:18;;;;;;;12.43;8.30;;;;;;;12.95;100.00;101980.16;5018456;28;20369;-75
2023/10/07 01:43:59;;;;;;;14.70;8.43;;;;;;;12.93;100.00;101984.72;5020672;28;20106;-75
2023/10/07 01:46:31;;;;;;;11.52;8.38;;;;;;;12.94;100.00;101969.53;5017529;28;20029;-76
2023/10/07 01:49:01;;;;;;;17.88;9.18;;;;;;;12.97;100.00;101974.75;5012652;28;20113;-76
2023/10/07 01:51:28;;;;;;;14.05;9.30;;;;;;;12.98;100.00;101975.63;5018320;28;20037;-76
2023/10/07 01:54:04;;;;;;;12.38;9.05;;;;;;;12.94;100.00;101964.19;5022768;28;20096;-75
2023/10/07 01:56:31;;;;;;;14.65;10.20;;;;;;;13.01;100.00;101964.81;5025506;28;20029;-77
2023/10/07 01:58:58;;;;;;;17.60;10.75;;;;;;;13.02;100.00;101962.06;5020691;28;20030;-76
2023/10/07 02:01:28;;;;;;;14.30;9.95;;;;;;;13.05;100.00;101961.06;5023427;28;20051;-75
2023/10/07 02:03:57;;;;;;;15.82;10.25;;;;;;;13.06;100.00;101971.69;5020217;28;20378;-75
2023/10/07 02:06:24;;;;;;;19.33;11.10;;;;;;;13.07;100.00;101965.41;5020203;28;20116;-75
2023/10/07 02:08:54;;;;;;;18.77;10.38;;;;;;;13.07;100.00;101970.75;5025496;28;20031;-76
2023/10/07 02:11:28;;;;;;;14.95;10.90;;;;;;;13.12;100.00;101962.53;5025606;28;20157;-75
2023/10/07 02:13:55;;;;;;;18.83;10.68;;;;;;;13.13;100.00;101962.47;5024500;28;20155;-76
2023/10/07 02:16:25;;;;;;;21.50;11.98;;;;;;;13.18;100.00;101967.63;5018897;28;20125;-75
2023/10/07 02:18:50;;;;;;;16.70;11.52;;;;;;;13.17;100.00;101961.41;5018380;28;20026;-75
2023/10/07 02:21:20;;;;;;;17.60;13.18;;;;;;;13.21;100.00;101970.16;5016692;28;20044;-76
2023/10/07 02:23:46;;;;;;;18.65;12.35;;;;;;;13.22;100.00;101958.53;5022464;28;20029;-75
2023/10/07 02:26:23;;;;;;;19.02;13.20;;;;;;;13.23;100.00;101946.91;5021152;28;20032;-75
2023/10/07 02:28:50;;;;;;;21.85;13.63;;;;;;;13.30;100.00;101953.75;5020038;28;20025;-75
2023/10/07 02:31:22;;;;;;;21.92;14.27;;;;;;;13.32;100.00;101949.19;5016167;28;20037;-74
2023/10/07 02:33:52;;;;;;;19.00;13.75;;;;;;;13.35;100.00;101954.41;5024587;28;20048;-75
2023/10/07 02:36:31;;;;;;;23.40;14.90;;;;;;;13.41;100.00;101958.59;5017915;28;20479;-75
2023/10/07 02:39:03;;;;;;;17.60;13.88;;;;;;;13.42;100.00;101963.88;5016781;28;20037;-75
2023/10/07 02:41:31;;;;;;;21.23;14.77;;;;;;;13.41;100.00;101954.09;5018869;28;20136;-76
2023/10/07 02:44:03;;;;;;;23.17;15.63;;;;;;;13.44;100.00;101956.66;5025114;28;20199;-75
2023/10/07 02:46:32;;;;;;;24.35;16.27;;;;;;;13.47;100.00;101973.50;5035489;28;20033;-76
2023/10/07 02:49:05;;;;;;;23.20;16.98;;;;;;;13.47;100.00;101960.13;5023697;28;20113;-76
2023/10/07 02:51:31;;;;;;;20.80;16.13;;;;;;;13.50;100.00;101971.53;5022254;28;20348;-75
2023/10/07 02:54:06;;;;;;;25.10;18.20;;;;;;;13.53;100.00;101967.88;5019991;28;20744;-75
2023/10/07 02:56:43;;;;;;;25.73;17.23;;;;;;;13.58;100.00;101965.84;5013963;28;20041;-75
2023/10/07 02:59:28;;;;;;;23.75;17.08;;;;;;;13.55;100.00;101968.69;5019558;28;20100;-75
2023/10/07 03:02:12;;;;;;;23.45;18.02;;;;;;;13.56;100.00;101962.41;5017222;28;20103;-76
2023/10/07 03:04:44;;;;;;;23.80;18.27;;;;;;;13.59;100.00;101975.63;5018845;28;20017;-76
2023/10/07 03:07:16;;;;;;;26.88;18.85;;;;;;;13.63;100.00;101966.53;5019164;28;20543;-74
2023/10/07 03:12:28;;;;;;;;;;;;;;;13.69;100.00;101985.84;5026936;28;20036;-75
2023/10/07 03:14:58;;;;;;;23.92;17.60;;;;;;;13.66;100.00;101971.72;5035466;28;20233;-76
2023/10/07 03:17:33;;;;;;;23.58;18.38;;;;;;;13.69;100.00;101971.59;5015511;28;20574;-75
2023/10/07 03:20:23;;;;;;;25.00;18.30;;;;;;;13.70;100.00;101973.31;5025509;28;20033;-75
2023/10/07 03:23:10;;;;;;;28.25;18.75;;;;;;;13.72;100.00;101965.25;5030409;28;20033;-75
2023/10/07 03:25:39;;;;;;;30.17;19.10;;;;;;;13.76;100.00;101966.84;5028073;28;20102;-75
2023/10/07 03:28:16;;;;;;;25.65;18.65;;;;;;;13.75;100.00;101970.44;5025418;28;20391;-76
2023/10/07 03:30:46;;;;;;;19.92;17.17;;;;;;;13.78;100.00;101967.63;5039305;28;20025;-76
2023/10/07 03:33:15;;;;;;;28.48;19.25;;;;;;;13.77;100.00;101963.22;5026705;28;20064;-75
2023/10/07 03:38:25;;;;;;;23.73;18.70;;;;;;;13.82;100.00;101954.03;5022038;28;20029;-75
2023/10/07 03:40:55;;;;;;;26.42;18.10;;;;;;;13.83;100.00;101971.81;5022067;28;20053;-76
2023/10/07 03:43:26;;;;;;;22.92;18.48;;;;;;;13.81;100.00;101963.00;5013982;28;20025;-74
2023/10/07 03:45:56;;;;;;;22.88;17.75;;;;;;;13.81;100.00;101959.47;5016743;28;20484;-74
2023/10/07 03:48:25;;;;;;;25.33;18.67;;;;;;;13.84;100.00;101962.00;5023458;28;20065;-74
2023/10/07 03:51:07;;;;;;;22.58;17.83;;;;;;;13.82;100.00;101954.03;5022296;28;20025;-75
2023/10/07 03:53:44;;;;;;;22.95;19.60;;;;;;;13.86;100.00;101950.25;5011477;28;20088;-75
2023/10/07 03:56:13;;;;;;;24.70;19.40;;;;;;;13.82;100.00;101939.78;5013811;28;20037;-74
2023/10/07 03:58:41;;;;;;;28.63;21.23;;;;;;;13.89;100.00;101933.22;5024810;28;20030;-77
2023/10/07 04:01:16;;;;;;;30.63;20.27;;;;;;;13.92;100.00;101935.75;5016150;28;20030;-75
2023/10/07 04:03:50;;;;;;;28.52;19.38;;;;;;;13.96;100.00;101939.97;5032950;28;20033;-75
2023/10/07 04:06:17;;;;;;;26.25;20.70;;;;;;;13.95;100.00;101935.56;5022583;28;20527;-76
2023/10/07 04:08:45;;;;;;;25.88;19.70;;;;;;;13.94;100.00;101925.81;5024000;28;20025;-75
2023/10/07 04:11:19;;;;;;;24.88;19.30;;;;;;;13.97;100.00;101922.13;5025391;28;20033;-75
2023/10/07 04:13:53;;;;;;;23.92;18.95;;;;;;;13.98;100.00;101903.31;5018578;28;20037;-76
2023/10/07 04:16:24;;;;;;;;;;;;;;;14.03;100.00;101925.38;5015851;28;20471;-76
2023/10/07 04:18:52;;;;;;;24.75;18.50;;;;;;;13.96;100.00;101923.91;5025002;28;19913;-75
2023/10/07 04:21:20;;;;;;;25.38;19.25;;;;;;;13.96;100.00;101929.28;5022638;28;20112;-76
2023/10/07 04:23:46;;;;;;;20.70;17.38;;;;;;;13.99;100.00;101933.63;5015673;28;20014;-74
2023/10/07 04:26:19;;;;;;;19.40;17.27;;;;;;;13.93;100.00;101921.41;5009258;28;20160;-76
2023/10/07 04:28:48;;;;;;;25.33;17.92;;;;;;;13.97;100.00;101930.16;5030282;28;20087;-76
2023/10/07 04:31:30;;;;;;;21.27;17.33;;;;;;;13.92;100.00;101923.22;5028777;28;20036;-76
2023/10/07 04:33:55;;;;;;;20.73;16.92;;;;;;;13.95;100.00;101917.69;5011421;28;20038;-74
2023/10/07 04:36:33;;;;;;;24.30;17.90;;;;;;;13.94;100.00;101926.69;5016701;28;20442;-75
2023/10/07 04:38:59;;;;;;;21.95;16.58;;;;;;;13.95;100.00;101932.91;5018633;28;20083;-75
2023/10/07 04:43:59;;;;;;;19.67;14.65;;;;;;;13.92;100.00;101936.59;5023948;28;20511;-75
2023/10/07 04:46:28;;;;;;;22.38;15.32;;;;;;;13.90;100.00;101933.13;5016351;28;20554;-75
2023/10/07 04:49:12;;;;;;;22.35;14.40;;;;;;;13.95;100.00;101954.31;5019165;28;20079;-76
2023/10/07 04:54:13;;;;;;;17.90;13.77;;;;;;;13.94;100.00;101940.06;5019964;28;20041;-76
2023/10/07 04:56:47;;;;;;;17.60;12.82;;;;;;;13.93;100.00;101946.38;5018139;28;20100;-76
2023/10/07 04:59:13;;;;;;;15.90;12.30;;;;;;;13.95;100.00;101951.63;5017209;28;20036;-76
2023/10/07 05:01:41;;;;;;;16.38;11.77;;;;;;;13.97;100.00;101947.09;5022349;28;20472;-76
2023/10/07 05:04:15;;;;;;;20.88;12.82;;;;;;;13.97;100.00;101951.59;5021829;28;20514;-76
2023/10/07 05:06:42;;;;;;;16.20;11.70;;;;;;;13.96;100.00;101948.00;5020232;28;20138;-76
2023/10/07 05:09:09;;;;;;;18.77;12.55;;;;;;;13.95;100.00;101952.50;5022525;28;20101;-77
2023/10/07 05:11:40;;;;;;;14.95;11.38;;;;;;;13.93;100.00;101946.38;5029686;28;20087;-76
2023/10/07 05:14:17;;;;;;;14.93;10.55;;;;;;;13.93;100.00;101945.50;5021287;28;20065;-75
2023/10/07 05:16:46;;;;;;;15.27;10.55;;;;;;;13.93;100.00;101948.19;5024397;28;20041;-75
2023/10/07 05:19:22;;;;;;;18.45;11.10;;;;;;;13.94;100.00;101948.09;5027455;28;20045;-75
2023/10/07 05:22:05;;;;;;;15.40;10.00;;;;;;;13.95;100.00;101955.19;5023382;28;20113;-75
2023/10/07 05:24:32;;;;;;;19.40;11.52;;;;;;;13.97;100.00;101952.44;5018677;28;20143;-76
2023/10/07 05:27:04;;;;;;;15.90;10.63;;;;;;;13.97;100.00;101951.59;5016296;28;20037;-76
2023/10/07 05:29:29;;;;;;;16.67;10.52;;;;;;;13.96;100.00;101950.69;5021197;28;20102;-76
2023/10/07 05:31:56;;;;;;;16.70;10.60;;;;;;;13.98;100.00;101954.19;5029167;28;20504;-75
2023/10/07 05:34:22;;;;;;;15.45;11.27;;;;;;;13.97;100.00;101954.25;5026333;28;20080;-75
2023/10/07 05:36:47;;;;;;;17.67;11.05;;;;;;;13.98;100.00;101947.97;5013366;28;20025;-75
2023/10/07 05:39:14;;;;;;;15.88;10.60;;;;;;;13.99;100.00;101944.34;5015255;28;20373;-75
2023/10/07 05:41:41;;;;;;;13.90;10.18;;;;;;;13.97;100.00;101933.72;5027586;28;20071;-75
2023/10/07 05:44:07;;;;;;;15.52;9.85;;;;;;;13.99;100.00;101930.94;5021388;28;20037;-75
2023/10/07 05:46:33;;;;;;;18.67;10.50;;;;;;;13.98;100.00;101918.50;5018052;28;20404;-76
2023/10/07 05:48:59;;;;;;;13.23;9.93;;;;;;;13.99;100.00;101938.97;5014518;28;20511;-74
2023/10/07 05:51:25;;;;;;;15.60;9.95;;;;;;;13.99;100.00;101938.97;5019008;28;20033;-74
2023/10/07 05:53:51;;;;;;;15.25;9.88;;;;;;;13.97;100.00;101939.06;5009089;28;20037;-76
2023/10/07 05:56:17;;;;;;;16.70;10.30;;;;;;;13.95;100.00;101941.78;5018579;28;20185;-75
2023/10/07 05:58:46;;;;;;;12.80;9.32;;;;;;;13.95;100.00;101944.47;5023484;28;20017;-75
2023/10/07 06:01:14;;;;;;;14.82;9.63;;;;;;;13.95;100.00;101947.16;5013839;28;20045;-75
2023/10/07 06:03:39;;;;;;;17.27;9.93;;;;;;;13.92;100.00;101938.41;5032813;28;20116;-75
2023/10/07 06:06:06;;;;;;;13.32;9.38;;;;;;;13.99;100.00;101938.97;5030408;28;20113;-76
2023/10/07 06:08:32;;;;;;;13.10;9.00;;;;;;;13.97;100.00;101939.06;5018721;28;20025;-75
2023/10/07 06:10:59;;;;;;;14.07;9.65;;;;;;;13.99;100.00;101944.34;5021005;28;20428;-75
2023/10/07 06:13:26;;;;;;;17.52;10.50;;;;;;;14.03;100.00;101951.28;5016185;28;20060;-76
2023/10/07 06:15:52;;;;;;;14.93;9.20;;;;;;;14.02;100.00;101961.13;5019936;28;21536;-74
2023/10/07 06:18:18;;;;;;;13.88;9.30;;;;;;;14.07;100.00;101963.56;5020437;28;20121;-76
2023/10/07 06:20:46;;;;;;;11.63;8.90;;;;;;;14.09;100.00;101959.91;5023590;28;20033;-76
2023/10/07 06:23:15;;;;;;;14.27;9.23;;;;;;;14.06;100.00;101962.72;5020466;28;20034;-76
2023/10/07 06:25:51;;;;;;;13.85;9.48;;;;;;;14.03;100.00;101970.00;5015338;28;20116;-77
2023/10/07 06:34:14;;;;;;;17.38;9.40;;;;;;;13.94;100.00;101963.28;5020731;28;20041;-77
2023/10/07 06:36:42;;;;;;;15.07;9.30;;;;;;;13.94;100.00;101971.31;5022677;28;20535;-76
2023/10/07 06:39:08;;;;;;;15.30;10.05;;;;;;;13.95;100.00;101981.06;5018634;28;20034;-76
2023/10/07 06:41:34;;;;;;;12.73;9.02;;;;;;;13.95;100.00;101973.91;5018666;28;20072;-77
2023/10/07 06:44:02;;;;;;;13.13;9.27;;;;;;;13.96;100.00;101988.16;5021818;28;20037;-76
2023/10/07 06:46:41;;;;;;;13.18;9.40;;;;;;;13.95;100.00;101987.28;5022770;28;20572;-76
2023/10/07 06:49:20;;;;;;;13.85;9.60;;;;;;;13.99;100.00;101965.75;5017288;28;20520;-76
2023/10/07 06:51:52;;;;;;;16.92;8.80;;;;;;;14.01;100.00;101983.47;5006390;28;20124;-77
2023/10/07 06:54:18;;;;;;;15.05;9.25;;;;;;;14.04;100.00;101979.78;5005230;28;20021;-75
2023/10/07 06:56:45;;;;;;;12.73;8.60;;;;;;;14.05;100.00;101978.84;5004646;28;20040;-76
2023/10/07 06:59:13;;;;;;;15.70;8.77;;;;;;;14.07;100.00;101985.84;5031038;28;20687;-76
2023/10/07 07:04:10;;;;;;;13.43;8.70;;;;;;;14.19;100.00;101995.13;5022181;28;20206;-78
2023/10/07 07:06:43;;;;;;;13.48;8.63;;;;;;;14.25;100.00;102000.16;5020881;28;20696;-77
2023/10/07 07:12:12;;;;;;;13.93;7.82;;;;;;;14.42;100.00;102002.03;5015726;28;20521;-75
2023/10/07 07:14:50;;;;;;;13.52;8.25;;;;;;;14.50;100.00;101989.16;5020408;28;20576;-77
2023/10/07 07:17:29;;;;;;;13.45;7.90;;;;;;;14.61;100.00;101985.97;5012153;28;20499;-75
2023/10/07 07:22:50;;;;;;;12.73;7.57;;;;;;;14.64;100.00;101996.53;5031975;28;20472;-75
2023/10/07 07:25:39;;;;;;;13.70;7.90;;;;;;;14.67;100.00;102018.72;5038348;28;20090;-74
2023/10/07 07:28:04;;;;;;;12.73;7.68;;;;;;;14.72;100.00;102007.75;5031930;28;20036;-74
2023/10/07 07:30:30;;;;;;;12.77;8.07;;;;;;;14.79;100.00;102005.63;5030674;28;20491;-74
2023/10/07 07:32:59;;;;;;;12.00;7.40;;;;;;;14.85;100.00;102014.22;5028730;28;20139;-74
2023/10/07 07:35:39;;;;;;;13.95;8.00;;;;;;;14.89;100.00;102013.13;5031571;28;20041;-74
2023/10/07 07:38:18;;;;;;;11.73;7.53;;;;;;;14.93;100.00;102024.56;5033978;28;20047;-74
2023/10/07 07:40:44;;;;;;;12.27;7.45;;;;;;;14.93;100.00;102017.41;5031758;28;20065;-75
2023/10/07 07:43:13;;;;;;;12.70;7.35;;;;;;;14.92;100.00;102020.13;5020590;28;20066;-74
2023/10/07 07:45:38;;;;;;;14.23;8.02;;;;;;;14.81;100.00;102015.31;5035837;28;20040;-74
2023/10/07 07:48:05;;;;;;;14.50;7.60;;;;;;;14.73;100.00;102022.88;5031544;28;20033;-73
2023/10/07 07:50:35;;;;;;;17.08;7.28;;;;;;;14.81;100.00;102027.88;5035735;28;20064;-75
2023/10/07 07:53:06;;;;;;;10.10;7.47;;;;;;;14.91;100.00;102013.03;5034967;28;20507;-75
2023/10/07 07:55:43;;;;;;;12.68;7.45;;;;;;;15.17;100.00;102007.25;5033495;28;20033;-75
2023/10/07 07:58:12;;;;;;;11.60;7.70;;;;;;;15.36;100.00;102007.13;5033283;28;20033;-75
2023/10/07 08:00:58;;;;;;;15.10;8.65;;;;;;;15.47;100.00;102001.22;5021843;28;20033;-76
2023/10/07 08:03:24;;;;;;;10.65;7.07;;;;;;;15.43;100.00;102003.19;5021057;28;20033;-76
2023/10/07 08:05:49;;;;;;;13.43;7.85;;;;;;;15.40;100.00;102006.03;5010702;28;20030;-74
2023/10/07 08:08:24;;;;;;;13.65;7.60;;;;;;;15.37;100.00;102011.53;5019415;28;20033;-76
2023/10/07 08:10:56;;;;;;;11.13;7.80;;;;;;;15.34;100.00;102014.41;5015578;28;20411;-76
2023/10/07 08:13:24;;;;;;;13.43;7.38;;;;;;;15.43;100.00;102021.97;5017846;28;20085;-75
2023/10/07 08:15:52;;;;;;;11.63;7.40;;;;;;;15.56;100.00;102024.88;5020541;28;20080;-74
2023/10/07 08:18:40;;;;;;;11.70;7.50;;;;;;;15.57;100.00;102020.38;5017401;28;20121;-75
2023/10/07 08:21:07;;;;;;;13.15;7.63;;;;;;;15.64;100.00;102027.16;5022911;28;20123;-75
2023/10/07 08:23:46;;;;;;;12.88;7.32;;;;;;;15.69;100.00;102027.81;5015591;28;20065;-75
2023/10/07 08:26:20;;;;;;;10.68;6.65;;;;;;;15.81;100.00;102029.81;5019319;28;20601;-75
2023/10/07 08:28:47;;;;;;;12.63;6.80;;;;;;;16.06;100.00;102032.03;5016972;28;20065;-76
2023/10/07 08:31:20;;;;;;;11.93;6.75;;;;;;;16.43;100.00;102016.56;5008895;28;20106;-75
2023/10/07 08:33:53;;;;;;;10.93;6.53;;;;;;;17.09;100.00;102023.50;5011946;28;20039;-75
2023/10/07 08:36:18;;;;;;;9.63;5.53;;;;;;;18.04;97.81;102026.63;5022230;28;20629;-77
2023/10/07 08:38:44;;;;;;;9.70;6.22;;;;;;;18.67;92.77;102025.25;5024699;28;20053;-75
2023/10/07 08:41:16;;;;;;;10.50;5.43;;;;;;;19.24;88.89;102026.84;5017428;28;20038;-76
2023/10/07 08:43:44;;;;;;;8.88;5.60;;;;;;;19.62;85.31;102027.78;5018144;28;20033;-74
2023/10/07 08:46:15;;;;;;;9.90;5.53;;;;;;;20.21;83.03;102027.19;5027185;28;20061;-76
2023/10/07 08:48:50;;;;;;;8.93;4.72;;;;;;;20.68;79.08;102028.25;5018060;28;20128;-76
2023/10/07 08:51:25;;;;;;;8.85;5.32;;;;;;;20.92;76.74;102017.41;5012839;28;20167;-75
2023/10/07 08:53:57;;;;;;;10.00;5.22;;;;;;;20.98;75.49;102016.94;5013819;28;20034;-75
2023/10/07 08:56:27;;;;;;;8.80;5.00;;;;;;;21.26;74.56;102010.25;5030676;28;20083;-74
2023/10/07 08:58:53;;;;;;;9.65;5.13;;;;;;;21.50;72.23;102022.91;5016108;28;20163;-73
2023/10/07 09:01:19;;;;;;;9.15;4.68;;;;;;;21.59;71.44;102011.34;5017787;28;20372;-75
2023/10/07 09:03:47;;;;;;;8.68;4.95;;;;;;;22.05;70.26;102023.94;5027975;28;20260;-75
2023/10/07 09:06:13;;;;;;;11.57;4.60;;;;;;;22.31;68.31;102014.56;5027312;28;20025;-71
2023/10/07 09:08:39;;;;;;;9.60;4.90;;;;;;;22.44;68.02;102008.13;5013030;28;20029;-73
2023/10/07 09:11:08;;;;;;;7.47;4.93;;;;;;;22.96;64.83;102001.09;5015658;28;20072;-73
2023/10/07 09:13:34;;;;;;;9.05;4.82;;;;;;;23.33;63.37;102015.09;5027483;28;20366;-72
2023/10/07 09:16:03;;;;;;;7.00;4.45;;;;;;;23.48;61.87;102004.72;5018013;28;20037;-72
2023/10/07 09:18:31;;;;;;;7.80;4.43;;;;;;;23.50;61.70;102002.75;5012933;28;20026;-73
2023/10/07 09:20:58;;;;;;;9.43;4.72;;;;;;;23.64;59.80;101996.97;5013461;28;20087;-72
2023/10/07 09:23:33;;;;;;;9.13;4.72;;;;;;;23.59;60.44;101993.78;5021262;28;20076;-72
2023/10/07 09:26:14;;;;;;;11.20;4.72;;;;;;;23.99;60.94;101995.69;5011884;28;20059;-73
2023/10/07 09:28:44;;;;;;;7.97;4.70;;;;;;;24.38;57.49;102010.34;5014416;28;20104;-73
2023/10/07 09:31:09;;;;;;;7.88;4.10;;;;;;;24.59;56.35;102000.19;5013333;28;20045;-74
2023/10/07 09:33:39;;;;;;;7.35;4.40;;;;;;;24.81;55.15;101995.47;5016159;28;20033;-71
2023/10/07 09:36:23;;;;;;;6.93;3.80;;;;;;;25.44;54.46;101992.28;5015966;28;20033;-73
2023/10/07 09:38:49;;;;;;;6.10;3.83;;;;;;;25.05;53.42;102009.53;5005197;28;20025;-73
2023/10/07 09:41:24;;;;;;;8.40;4.38;;;;;;;24.97;53.32;102000.34;5020678;28;20073;-73
2023/10/07 09:43:57;;;;;;;7.88;4.22;;;;;;;25.14;53.43;102005.09;5014573;28;20077;-73
2023/10/07 09:46:27;;;;;;;6.18;3.83;;;;;;;25.54;52.11;102002.16;5008450;28;20022;-72
2023/10/07 09:48:53;;;;;;;8.18;4.07;;;;;;;25.53;51.74;101997.69;5019823;28;20115;-72
2023/10/07 09:51:24;;;;;;;8.90;4.20;;;;;;;26.29;51.94;102003.03;5014416;28;20108;-73
2023/10/07 09:54:22;;;;;;;9.20;4.65;;;;;;;27.19;49.43;102000.34;5013944;28;20037;-73
2023/10/07 09:57:19;;;;;;;6.80;4.03;;;;;;;28.01;48.16;102002.63;5017015;28;20036;-73
2023/10/07 10:03:14;;;;;;;10.75;3.88;;;;;;;28.04;45.08;101994.06;5017595;28;20045;-73
2023/10/07 10:06:07;;;;;;;7.25;4.20;;;;;;;28.44;45.26;101997.13;5013416;28;20037;-74
2023/10/07 10:08:36;;;;;;;;;;;;;;;29.73;43.54;101997.34;5011214;28;20048;-73
2023/10/07 10:11:09;;;;;;;7.72;3.63;;;;;;;28.60;43.01;101994.44;5019551;28;20008;-74
2023/10/07 10:16:15;;;;;;;9.90;3.63;;;;;;;28.05;44.72;101997.69;5025306;28;20499;-73
2023/10/07 10:18:50;;;;;;;6.70;3.65;;;;;;;27.89;44.13;102005.81;5018875;28;20173;-73
2023/10/07 10:21:23;;;;;;;7.00;3.60;;;;;;;28.38;43.61;102006.84;5031889;28;20556;-73
2023/10/07 10:23:51;;;;;;;5.63;3.53;;;;;;;28.33;42.95;102011.09;5023362;28;20030;-74
2023/10/07 10:26:20;;;;;;;7.25;3.65;;;;;;;28.84;42.93;102025.63;5038315;28;20025;-74
2023/10/07 10:29:07;;;;;;;6.78;3.88;;;;;;;29.02;42.83;102026.38;5011985;28;20222;-74
2023/10/07 10:31:34;;;;;;;6.30;3.30;;;;;;;29.47;40.47;102027.69;5019646;28;20025;-74
2023/10/07 10:34:08;;;;;;;6.78;3.72;;;;;;;30.03;40.05;102023.13;5015157;28;20597;-73
2023/10/07 10:36:38;;;;;;;6.40;3.75;;;;;;;30.26;39.33;102025.97;5026163;28;20391;-75
2023/10/07 10:39:16;;;;;;;7.22;3.63;;;;;;;30.16;40.46;102019.84;5012070;28;20124;-74
2023/10/07 10:41:44;;;;;;;6.63;3.45;;;;;;;30.72;38.02;102020.56;5023459;28;20057;-74
2023/10/07 10:44:10;;;;;;;5.38;3.58;;;;;;;30.11;37.94;102025.84;5022764;28;20038;-73
2023/10/07 10:46:44;;;;;;;7.45;3.90;;;;;;;29.57;40.01;102028.41;5013167;28;20021;-74
2023/10/07 10:49:11;;;;;;;5.82;3.85;;;;;;;29.45;39.47;102025.13;5018830;28;20137;-74
2023/10/07 10:51:45;;;;;;;5.55;3.72;;;;;;;29.35;39.86;102037.34;5021608;28;20129;-75
2023/10/07 10:54:13;;;;;;;6.13;3.55;;;;;;;29.32;40.28;102029.44;5017034;28;20331;-73
2023/10/07 10:56:58;;;;;;;7.93;3.88;;;;;;;30.07;40.75;102027.25;5018582;28;20056;-74
2023/10/07 10:59:43;;;;;;;8.73;3.65;;;;;;;30.33;39.32;102028.88;5018315;28;20254;-74
2023/10/07 11:02:17;;;;;;;6.75;3.65;;;;;;;30.33;38.25;102026.13;5009685;28;20104;-73
2023/10/07 11:04:46;;;;;;;6.18;3.72;;;;;;;30.21;37.13;102031.16;5025255;28;20040;-73
2023/10/07 11:07:12;;;;;;;8.15;3.53;;;;;;;30.23;37.34;102027.19;5021634;28;20018;-74
2023/10/07 11:09:38;;;;;;;7.03;3.60;;;;;;;30.36;37.05;102023.03;5015195;28;20546;-72
2023/10/07 11:12:09;;;;;;;4.22;2.85;;;;;;;30.44;36.99;102014.75;5028446;28;20557;-74
2023/10/07 11:14:38;;;;;;;6.82;3.63;;;;;;;30.87;36.28;102015.16;5025315;28;20036;-73
2023/10/07 11:17:05;;;;;;;8.18;3.53;;;;;;;30.97;35.87;102011.13;5022309;28;20037;-73
2023/10/07 11:19:31;;;;;;;4.95;3.22;;;;;;;31.40;35.23;102000.47;5016956;28;20029;-74
2023/10/07 11:21:57;;;;;;;5.85;3.72;;;;;;;31.25;34.84;102010.53;5021440;28;20021;-72
2023/10/07 11:24:26;;;;;;;6.47;3.60;;;;;;;31.35;34.51;102005.69;5014964;28;20280;-74
2023/10/07 11:26:56;;;;;;;6.70;3.63;;;;;;;31.43;34.97;102018.47;5016403;28;20092;-75
2023/10/07 11:29:24;;;;;;;5.55;3.40;;;;;;;31.66;34.53;102004.66;5027464;28;20049;-72
2023/10/07 11:31:58;;;;;;;7.13;3.47;;;;;;;32.29;34.61;102003.22;5017919;28;20097;-73
2023/10/07 11:34:37;;;;;;;7.97;3.60;;;;;;;32.39;34.15;102000.16;5019515;28;20068;-74
2023/10/07 11:37:14;;;;;;;6.28;3.50;;;;;;;32.54;33.87;102005.66;5028518;28;20030;-74
2023/10/07 11:39:46;;;;;;;7.40;3.58;;;;;;;32.05;33.61;102001.63;5016589;28;20037;-74
2023/10/07 11:42:16;;;;;;;5.63;3.53;;;;;;;32.23;33.40;101993.81;5011575;28;20362;-74
2023/10/07 11:44:46;;;;;;;9.50;3.83;;;;;;;32.20;33.00;101987.84;5028349;28;20604;-73
2023/10/07 11:47:15;;;;;;;4.85;3.20;;;;;;;31.84;33.62;101993.28;5018935;28;20113;-73
2023/10/07 11:49:40;;;;;;;6.60;3.70;;;;;;;32.38;33.20;102001.19;5013853;28;20087;-73
2023/10/07 11:52:06;;;;;;;6.72;3.30;;;;;;;33.07;32.86;101984.16;5028506;28;20464;-74
2023/10/07 11:54:34;;;;;;;6.55;3.30;;;;;;;33.04;32.39;102004.69;5021013;28;20025;-72
2023/10/07 11:57:02;;;;;;;5.85;3.55;;;;;;;32.46;32.39;101992.84;5016801;28;20044;-75
2023/10/07 11:59:28;;;;;;;6.70;3.45;;;;;;;31.93;33.34;101995.75;5016273;28;20126;-73
2023/10/07 12:01:53;;;;;;;7.20;3.80;;;;;;;32.08;33.10;102004.00;5007534;28;20687;-74
2023/10/07 12:04:21;;;;;;;5.18;3.25;;;;;;;32.27;33.43;102005.28;5014964;28;20033;-74
2023/10/07 12:06:47;;;;;;;7.93;4.00;;;;;;;32.45;33.18;101997.50;5014247;28;20025;-73
2023/10/07 12:09:14;;;;;;;7.57;3.55;;;;;;;32.97;32.36;101999.09;5011613;28;20621;-73